sensor_id;sensor_type;location;lat;lon;timestamp;temperature;humidity
23124;DHT22;11731;48.592;8.858;2022-09-11T00:02:18;16.50;99.90
23124;DHT22;11731;48.592;8.858;2022-09-11T00:04:47;16.40;99.90
23124;DHT22;11731;48.592;8.858;2022-09-11T00:07:15;16.70;99.90
23124;DHT22;11731;48.592;8.858;2022-09-11T00:09:42;16.60;99.90
23124;DHT22;11731;48.592;8.858;2022-09-11T00:12:08;16.40;99.90
23124;DHT22;11731;48.592;8.858;2022-09-11T00:14:35;16.30;99.90
23124;DHT22;11731;48.592;8.858;2022-09-11T00:17:02;16.30;99.90
23124;DHT22;11731;48.592;8.858;2022-09-11T00:19:29;16.40;99.90
23124;DHT22;11731;48.592;8.858;2022-09-11T00:21:56;16.40;99.90
23124;DHT22;11731;48.592;8.858;2022-09-11T00:24:24;16.30;99.90
23124;DHT22;11731;48.592;8.858;2022-09-11T00:26:51;16.40;99.90
23124;DHT22;11731;48.592;8.858;2022-09-11T00:29:18;16.40;99.90
23124;DHT22;11731;48.592;8.858;2022-09-11T00:31:45;17.00;99.90
23124;DHT22;11731;48.592;8.858;2022-09-11T00:34:13;17.40;99.90
23124;DHT22;11731;48.592;8.858;2022-09-11T00:36:40;17.50;99.90
23124;DHT22;11731;48.592;8.858;2022-09-11T00:39:09;17.60;99.90
23124;DHT22;11731;48.592;8.858;2022-09-11T00:41:39;17.60;99.90
23124;DHT22;11731;48.592;8.858;2022-09-11T00:44:51;17.50;99.90
23124;DHT22;11731;48.592;8.858;2022-09-11T00:46:55;17.50;99.90
23124;DHT22;11731;48.592;8.858;2022-09-11T00:49:25;17.20;99.90
23124;DHT22;11731;48.592;8.858;2022-09-11T00:51:54;17.10;99.90
23124;DHT22;11731;48.592;8.858;2022-09-11T00:54:27;16.90;99.90
23124;DHT22;11731;48.592;8.858;2022-09-11T00:56:58;17.10;99.90
23124;DHT22;11731;48.592;8.858;2022-09-11T00:59:30;17.10;99.90
23124;DHT22;11731;48.592;8.858;2022-09-11T01:01:57;16.90;99.90
23124;DHT22;11731;48.592;8.858;2022-09-11T01:04:24;16.90;99.90
23124;DHT22;11731;48.592;8.858;2022-09-11T01:06:55;16.30;99.90
23124;DHT22;11731;48.592;8.858;2022-09-11T01:09:22;16.00;99.90
23124;DHT22;11731;48.592;8.858;2022-09-11T01:11:58;15.90;99.90
23124;DHT22;11731;48.592;8.858;2022-09-11T01:14:39;15.90;99.90
23124;DHT22;11731;48.592;8.858;2022-09-11T01:17:16;16.00;99.90
23124;DHT22;11731;48.592;8.858;2022-09-11T01:20:03;16.10;99.90
23124;DHT22;11731;48.592;8.858;2022-09-11T01:25:47;16.30;99.90
23124;DHT22;11731;48.592;8.858;2022-09-11T01:28:20;16.50;99.90
23124;DHT22;11731;48.592;8.858;2022-09-11T01:30:53;16.60;99.90
23124;DHT22;11731;48.592;8.858;2022-09-11T01:33:24;16.80;99.90
23124;DHT22;11731;48.592;8.858;2022-09-11T01:35:57;17.10;99.90
23124;DHT22;11731;48.592;8.858;2022-09-11T01:38:31;17.20;99.90
23124;DHT22;11731;48.592;8.858;2022-09-11T01:41:03;17.30;99.90
23124;DHT22;11731;48.592;8.858;2022-09-11T01:43:37;17.50;99.90
23124;DHT22;11731;48.592;8.858;2022-09-11T01:46:06;17.70;99.90
23124;DHT22;11731;48.592;8.858;2022-09-11T01:48:37;17.90;99.90
23124;DHT22;11731;48.592;8.858;2022-09-11T01:51:07;17.90;99.90
23124;DHT22;11731;48.592;8.858;2022-09-11T01:53:37;17.80;99.90
23124;DHT22;11731;48.592;8.858;2022-09-11T01:56:08;17.90;99.90
23124;DHT22;11731;48.592;8.858;2022-09-11T01:58:40;17.70;99.90
23124;DHT22;11731;48.592;8.858;2022-09-11T02:01:10;17.90;99.90
23124;DHT22;11731;48.592;8.858;2022-09-11T02:03:40;17.60;99.90
23124;DHT22;11731;48.592;8.858;2022-09-11T02:06:11;17.40;99.90
23124;DHT22;11731;48.592;8.858;2022-09-11T02:08:44;17.30;99.90
23124;DHT22;11731;48.592;8.858;2022-09-11T02:11:14;17.30;99.90
23124;DHT22;11731;48.592;8.858;2022-09-11T02:13:48;17.10;99.90
23124;DHT22;11731;48.592;8.858;2022-09-11T02:16:20;17.00;99.90
23124;DHT22;11731;48.592;8.858;2022-09-11T02:18:55;17.00;99.90
23124;DHT22;11731;48.592;8.858;2022-09-11T02:21:24;17.00;99.90
23124;DHT22;11731;48.592;8.858;2022-09-11T02:23:52;17.10;99.90
23124;DHT22;11731;48.592;8.858;2022-09-11T02:26:21;17.40;99.90
23124;DHT22;11731;48.592;8.858;2022-09-11T02:28:51;17.60;99.90
23124;DHT22;11731;48.592;8.858;2022-09-11T02:31:19;17.40;99.90
23124;DHT22;11731;48.592;8.858;2022-09-11T02:33:47;17.50;99.90
23124;DHT22;11731;48.592;8.858;2022-09-11T02:39:19;17.70;99.90
23124;DHT22;11731;48.592;8.858;2022-09-11T02:42:03;17.60;99.90
23124;DHT22;11731;48.592;8.858;2022-09-11T02:44:36;17.50;99.90
23124;DHT22;11731;48.592;8.858;2022-09-11T02:47:13;17.50;99.90
23124;DHT22;11731;48.592;8.858;2022-09-11T02:49:48;17.50;99.90
23124;DHT22;11731;48.592;8.858;2022-09-11T02:52:25;17.40;99.90
23124;DHT22;11731;48.592;8.858;2022-09-11T02:55:01;17.20;99.90
23124;DHT22;11731;48.592;8.858;2022-09-11T02:57:33;17.30;99.90
23124;DHT22;11731;48.592;8.858;2022-09-11T03:00:05;17.50;99.90
23124;DHT22;11731;48.592;8.858;2022-09-11T03:02:34;17.60;99.90
23124;DHT22;11731;48.592;8.858;2022-09-11T03:05:02;17.70;99.90
23124;DHT22;11731;48.592;8.858;2022-09-11T03:07:29;17.80;99.90
23124;DHT22;11731;48.592;8.858;2022-09-11T03:09:57;17.90;99.90
23124;DHT22;11731;48.592;8.858;2022-09-11T03:12:24;17.60;99.90
23124;DHT22;11731;48.592;8.858;2022-09-11T03:14:53;17.40;99.90
23124;DHT22;11731;48.592;8.858;2022-09-11T03:17:22;17.10;99.90
23124;DHT22;11731;48.592;8.858;2022-09-11T03:19:50;16.70;99.90
23124;DHT22;11731;48.592;8.858;2022-09-11T03:22:16;16.30;99.90
23124;DHT22;11731;48.592;8.858;2022-09-11T03:24:43;16.00;99.90
23124;DHT22;11731;48.592;8.858;2022-09-11T03:27:10;16.20;99.90
23124;DHT22;11731;48.592;8.858;2022-09-11T03:29:37;16.30;99.90
23124;DHT22;11731;48.592;8.858;2022-09-11T03:32:04;16.50;99.90
23124;DHT22;11731;48.592;8.858;2022-09-11T03:34:32;16.80;99.90
23124;DHT22;11731;48.592;8.858;2022-09-11T03:36:59;16.80;99.90
23124;DHT22;11731;48.592;8.858;2022-09-11T03:39:26;16.80;99.90
23124;DHT22;11731;48.592;8.858;2022-09-11T03:41:53;16.90;99.90
23124;DHT22;11731;48.592;8.858;2022-09-11T03:44:20;17.10;99.90
23124;DHT22;11731;48.592;8.858;2022-09-11T03:46:47;17.40;99.90
23124;DHT22;11731;48.592;8.858;2022-09-11T03:49:14;17.40;99.90
23124;DHT22;11731;48.592;8.858;2022-09-11T03:51:42;17.00;99.90
23124;DHT22;11731;48.592;8.858;2022-09-11T03:54:09;17.20;99.90
23124;DHT22;11731;48.592;8.858;2022-09-11T03:56:36;16.60;99.90
23124;DHT22;11731;48.592;8.858;2022-09-11T03:59:03;16.70;99.90
23124;DHT22;11731;48.592;8.858;2022-09-11T04:01:30;16.80;99.90
23124;DHT22;11731;48.592;8.858;2022-09-11T04:03:57;16.80;99.90
23124;DHT22;11731;48.592;8.858;2022-09-11T04:06:24;16.70;99.90
23124;DHT22;11731;48.592;8.858;2022-09-11T04:08:53;16.90;99.90
23124;DHT22;11731;48.592;8.858;2022-09-11T04:11:20;17.10;99.90
23124;DHT22;11731;48.592;8.858;2022-09-11T04:13:47;16.90;99.90
23124;DHT22;11731;48.592;8.858;2022-09-11T04:16:15;16.80;99.90
23124;DHT22;11731;48.592;8.858;2022-09-11T04:18:44;16.90;99.90
23124;DHT22;11731;48.592;8.858;2022-09-11T04:21:13;16.80;99.90
23124;DHT22;11731;48.592;8.858;2022-09-11T04:23:40;16.80;99.90
23124;DHT22;11731;48.592;8.858;2022-09-11T04:26:14;16.90;99.90
23124;DHT22;11731;48.592;8.858;2022-09-11T04:28:41;16.70;99.90
23124;DHT22;11731;48.592;8.858;2022-09-11T04:31:08;17.00;99.90
23124;DHT22;11731;48.592;8.858;2022-09-11T04:33:35;17.10;99.90
23124;DHT22;11731;48.592;8.858;2022-09-11T04:36:05;17.20;99.90
23124;DHT22;11731;48.592;8.858;2022-09-11T04:38:32;17.30;99.90
23124;DHT22;11731;48.592;8.858;2022-09-11T04:41:00;17.30;99.90
23124;DHT22;11731;48.592;8.858;2022-09-11T04:43:29;17.00;99.90
23124;DHT22;11731;48.592;8.858;2022-09-11T04:45:59;17.00;99.90
23124;DHT22;11731;48.592;8.858;2022-09-11T04:48:26;17.30;99.90
23124;DHT22;11731;48.592;8.858;2022-09-11T04:51:04;17.50;99.90
23124;DHT22;11731;48.592;8.858;2022-09-11T04:53:31;17.60;99.90
23124;DHT22;11731;48.592;8.858;2022-09-11T04:56:02;17.70;99.90
23124;DHT22;11731;48.592;8.858;2022-09-11T04:58:31;17.80;99.90
23124;DHT22;11731;48.592;8.858;2022-09-11T05:00:58;17.90;99.90
23124;DHT22;11731;48.592;8.858;2022-09-11T05:03:25;18.00;99.90
23124;DHT22;11731;48.592;8.858;2022-09-11T05:05:52;18.10;99.90
23124;DHT22;11731;48.592;8.858;2022-09-11T05:08:19;17.90;99.90
23124;DHT22;11731;48.592;8.858;2022-09-11T05:10:47;17.80;99.90
23124;DHT22;11731;48.592;8.858;2022-09-11T05:13:14;17.80;99.90
23124;DHT22;11731;48.592;8.858;2022-09-11T05:15:43;17.90;99.90
23124;DHT22;11731;48.592;8.858;2022-09-11T05:18:09;17.90;99.90
23124;DHT22;11731;48.592;8.858;2022-09-11T05:20:36;17.70;99.90
23124;DHT22;11731;48.592;8.858;2022-09-11T05:23:04;17.30;99.90
23124;DHT22;11731;48.592;8.858;2022-09-11T05:25:32;17.20;99.90
23124;DHT22;11731;48.592;8.858;2022-09-11T05:28:02;17.20;99.90
23124;DHT22;11731;48.592;8.858;2022-09-11T05:30:29;17.40;99.90
23124;DHT22;11731;48.592;8.858;2022-09-11T05:32:57;17.70;99.90
23124;DHT22;11731;48.592;8.858;2022-09-11T05:35:25;17.90;99.90
23124;DHT22;11731;48.592;8.858;2022-09-11T05:37:52;17.90;99.90
23124;DHT22;11731;48.592;8.858;2022-09-11T05:40:19;17.80;99.90
23124;DHT22;11731;48.592;8.858;2022-09-11T05:42:45;17.80;99.90
23124;DHT22;11731;48.592;8.858;2022-09-11T05:45:12;18.00;99.90
23124;DHT22;11731;48.592;8.858;2022-09-11T05:47:39;18.10;99.90
23124;DHT22;11731;48.592;8.858;2022-09-11T05:50:08;18.20;99.90
23124;DHT22;11731;48.592;8.858;2022-09-11T05:52:35;18.20;99.90
23124;DHT22;11731;48.592;8.858;2022-09-11T05:55:03;18.30;99.90
23124;DHT22;11731;48.592;8.858;2022-09-11T05:57:30;18.40;99.90
23124;DHT22;11731;48.592;8.858;2022-09-11T05:59:57;18.20;99.90
23124;DHT22;11731;48.592;8.858;2022-09-11T06:02:25;18.00;99.90
23124;DHT22;11731;48.592;8.858;2022-09-11T06:04:52;18.00;99.90
23124;DHT22;11731;48.592;8.858;2022-09-11T06:07:20;18.00;99.90
23124;DHT22;11731;48.592;8.858;2022-09-11T06:09:47;17.80;99.90
23124;DHT22;11731;48.592;8.858;2022-09-11T06:12:14;17.60;99.90
23124;DHT22;11731;48.592;8.858;2022-09-11T06:14:43;17.80;99.90
23124;DHT22;11731;48.592;8.858;2022-09-11T06:17:10;17.80;99.90
23124;DHT22;11731;48.592;8.858;2022-09-11T06:19:37;17.90;99.90
23124;DHT22;11731;48.592;8.858;2022-09-11T06:22:04;18.20;99.90
23124;DHT22;11731;48.592;8.858;2022-09-11T06:24:32;18.20;99.90
23124;DHT22;11731;48.592;8.858;2022-09-11T06:26:59;18.40;99.90
23124;DHT22;11731;48.592;8.858;2022-09-11T06:29:25;18.60;99.90
23124;DHT22;11731;48.592;8.858;2022-09-11T06:31:53;18.50;99.90
23124;DHT22;11731;48.592;8.858;2022-09-11T06:34:20;18.30;99.90
23124;DHT22;11731;48.592;8.858;2022-09-11T06:36:47;18.10;99.90
23124;DHT22;11731;48.592;8.858;2022-09-11T06:39:14;18.00;99.90
23124;DHT22;11731;48.592;8.858;2022-09-11T06:41:42;17.90;99.90
23124;DHT22;11731;48.592;8.858;2022-09-11T06:44:09;18.00;99.90
23124;DHT22;11731;48.592;8.858;2022-09-11T06:46:36;18.10;99.90
23124;DHT22;11731;48.592;8.858;2022-09-11T06:49:03;18.30;99.90
23124;DHT22;11731;48.592;8.858;2022-09-11T06:51:31;18.40;99.90
23124;DHT22;11731;48.592;8.858;2022-09-11T06:53:59;18.50;99.90
23124;DHT22;11731;48.592;8.858;2022-09-11T06:56:27;18.40;99.90
23124;DHT22;11731;48.592;8.858;2022-09-11T06:58:56;18.20;99.90
23124;DHT22;11731;48.592;8.858;2022-09-11T07:01:23;17.90;99.90
23124;DHT22;11731;48.592;8.858;2022-09-11T07:03:52;17.80;99.90
23124;DHT22;11731;48.592;8.858;2022-09-11T07:06:20;17.90;99.90
23124;DHT22;11731;48.592;8.858;2022-09-11T07:08:49;18.00;99.90
23124;DHT22;11731;48.592;8.858;2022-09-11T07:11:17;18.30;99.90
23124;DHT22;11731;48.592;8.858;2022-09-11T07:13:44;18.60;99.90
23124;DHT22;11731;48.592;8.858;2022-09-11T07:16:13;18.50;99.90
23124;DHT22;11731;48.592;8.858;2022-09-11T07:18:42;18.60;99.90
23124;DHT22;11731;48.592;8.858;2022-09-11T07:21:11;18.70;99.90
23124;DHT22;11731;48.592;8.858;2022-09-11T07:23:38;18.70;99.90
23124;DHT22;11731;48.592;8.858;2022-09-11T07:26:07;18.80;99.90
23124;DHT22;11731;48.592;8.858;2022-09-11T07:28:34;18.60;99.90
23124;DHT22;11731;48.592;8.858;2022-09-11T07:31:04;18.60;99.90
23124;DHT22;11731;48.592;8.858;2022-09-11T07:33:32;18.90;99.90
23124;DHT22;11731;48.592;8.858;2022-09-11T07:35:59;18.90;99.90
23124;DHT22;11731;48.592;8.858;2022-09-11T07:38:28;18.80;99.90
23124;DHT22;11731;48.592;8.858;2022-09-11T07:40:55;18.60;99.90
23124;DHT22;11731;48.592;8.858;2022-09-11T07:43:22;19.10;99.90
23124;DHT22;11731;48.592;8.858;2022-09-11T07:45:52;19.20;99.90
23124;DHT22;11731;48.592;8.858;2022-09-11T07:48:21;19.40;99.90
23124;DHT22;11731;48.592;8.858;2022-09-11T07:50:56;19.70;99.90
23124;DHT22;11731;48.592;8.858;2022-09-11T07:53:23;20.00;99.90
23124;DHT22;11731;48.592;8.858;2022-09-11T07:55:51;19.80;99.90
23124;DHT22;11731;48.592;8.858;2022-09-11T07:58:18;20.00;99.90
23124;DHT22;11731;48.592;8.858;2022-09-11T08:00:45;20.10;99.90
23124;DHT22;11731;48.592;8.858;2022-09-11T08:03:12;20.10;99.90
23124;DHT22;11731;48.592;8.858;2022-09-11T08:05:39;19.60;99.90
23124;DHT22;11731;48.592;8.858;2022-09-11T08:08:07;19.70;99.90
23124;DHT22;11731;48.592;8.858;2022-09-11T08:10:36;19.30;99.90
23124;DHT22;11731;48.592;8.858;2022-09-11T08:13:06;18.30;99.90
23124;DHT22;11731;48.592;8.858;2022-09-11T08:15:33;18.50;99.90
23124;DHT22;11731;48.592;8.858;2022-09-11T08:18:02;18.60;99.90
23124;DHT22;11731;48.592;8.858;2022-09-11T08:20:30;18.10;99.90
23124;DHT22;11731;48.592;8.858;2022-09-11T08:22:57;18.40;99.90
23124;DHT22;11731;48.592;8.858;2022-09-11T08:25:25;18.80;99.90
23124;DHT22;11731;48.592;8.858;2022-09-11T08:27:53;19.10;99.90
23124;DHT22;11731;48.592;8.858;2022-09-11T08:30:20;19.00;99.90
23124;DHT22;11731;48.592;8.858;2022-09-11T08:32:47;18.90;99.90
23124;DHT22;11731;48.592;8.858;2022-09-11T08:35:14;18.60;99.90
23124;DHT22;11731;48.592;8.858;2022-09-11T08:37:40;18.30;99.90
23124;DHT22;11731;48.592;8.858;2022-09-11T08:40:08;18.30;99.90
23124;DHT22;11731;48.592;8.858;2022-09-11T08:42:38;18.10;99.90
23124;DHT22;11731;48.592;8.858;2022-09-11T08:45:11;18.00;99.90
23124;DHT22;11731;48.592;8.858;2022-09-11T08:47:40;18.30;99.90
23124;DHT22;11731;48.592;8.858;2022-09-11T08:50:17;18.50;99.90
23124;DHT22;11731;48.592;8.858;2022-09-11T08:52:45;18.60;99.90
23124;DHT22;11731;48.592;8.858;2022-09-11T08:55:15;19.20;99.90
23124;DHT22;11731;48.592;8.858;2022-09-11T08:57:48;19.60;99.90
23124;DHT22;11731;48.592;8.858;2022-09-11T09:00:20;19.60;99.90
23124;DHT22;11731;48.592;8.858;2022-09-11T09:03:22;19.60;99.90
23124;DHT22;11731;48.592;8.858;2022-09-11T09:05:56;19.60;99.90
23124;DHT22;11731;48.592;8.858;2022-09-11T09:08:39;19.90;99.90
23124;DHT22;11731;48.592;8.858;2022-09-11T09:11:17;20.00;99.90
23124;DHT22;11731;48.592;8.858;2022-09-11T09:14:16;19.40;99.90
23124;DHT22;11731;48.592;8.858;2022-09-11T09:16:51;19.30;99.90
23124;DHT22;11731;48.592;8.858;2022-09-11T09:19:24;19.20;99.90
23124;DHT22;11731;48.592;8.858;2022-09-11T09:22:00;19.30;99.90
23124;DHT22;11731;48.592;8.858;2022-09-11T09:24:32;19.30;99.90
23124;DHT22;11731;48.592;8.858;2022-09-11T09:27:01;19.50;99.90
23124;DHT22;11731;48.592;8.858;2022-09-11T09:29:34;19.60;99.90
23124;DHT22;11731;48.592;8.858;2022-09-11T09:32:06;19.50;99.90
23124;DHT22;11731;48.592;8.858;2022-09-11T09:34:37;19.50;99.90
23124;DHT22;11731;48.592;8.858;2022-09-11T09:37:12;19.50;99.90
23124;DHT22;11731;48.592;8.858;2022-09-11T09:39:40;19.80;99.90
23124;DHT22;11731;48.592;8.858;2022-09-11T09:42:34;20.00;99.90
23124;DHT22;11731;48.592;8.858;2022-09-11T09:45:34;20.00;99.90
23124;DHT22;11731;48.592;8.858;2022-09-11T09:48:03;19.70;99.90
23124;DHT22;11731;48.592;8.858;2022-09-11T09:50:32;20.20;99.90
23124;DHT22;11731;48.592;8.858;2022-09-11T09:53:04;20.50;99.90
23124;DHT22;11731;48.592;8.858;2022-09-11T09:55:33;20.60;99.90
23124;DHT22;11731;48.592;8.858;2022-09-11T09:58:00;19.80;99.90
23124;DHT22;11731;48.592;8.858;2022-09-11T10:00:27;19.90;99.90
23124;DHT22;11731;48.592;8.858;2022-09-11T10:02:58;19.70;99.90
23124;DHT22;11731;48.592;8.858;2022-09-11T10:05:26;19.70;99.90
23124;DHT22;11731;48.592;8.858;2022-09-11T10:07:56;19.70;99.90
23124;DHT22;11731;48.592;8.858;2022-09-11T10:10:29;19.80;99.90
23124;DHT22;11731;48.592;8.858;2022-09-11T10:12:59;20.00;99.90
23124;DHT22;11731;48.592;8.858;2022-09-11T10:15:26;20.10;99.90
23124;DHT22;11731;48.592;8.858;2022-09-11T10:18:19;20.10;99.90
23124;DHT22;11731;48.592;8.858;2022-09-11T10:20:46;20.40;99.90
23124;DHT22;11731;48.592;8.858;2022-09-11T10:23:24;20.60;99.90
23124;DHT22;11731;48.592;8.858;2022-09-11T10:25:51;21.10;99.90
23124;DHT22;11731;48.592;8.858;2022-09-11T10:28:26;20.90;99.90
23124;DHT22;11731;48.592;8.858;2022-09-11T10:30:57;21.20;99.90
23124;DHT22;11731;48.592;8.858;2022-09-11T10:33:28;21.60;99.90
23124;DHT22;11731;48.592;8.858;2022-09-11T10:35:55;21.90;99.90
23124;DHT22;11731;48.592;8.858;2022-09-11T10:38:29;21.70;99.90
23124;DHT22;11731;48.592;8.858;2022-09-11T10:41:07;21.10;98.50
23124;DHT22;11731;48.592;8.858;2022-09-11T10:43:41;21.00;99.40
23124;DHT22;11731;48.592;8.858;2022-09-11T10:46:28;20.80;99.90
23124;DHT22;11731;48.592;8.858;2022-09-11T10:49:03;20.90;99.90
23124;DHT22;11731;48.592;8.858;2022-09-11T10:51:35;21.30;99.80
23124;DHT22;11731;48.592;8.858;2022-09-11T10:54:20;21.60;99.10
23124;DHT22;11731;48.592;8.858;2022-09-11T10:57:01;21.70;99.50
23124;DHT22;11731;48.592;8.858;2022-09-11T10:59:35;21.70;99.10
23124;DHT22;11731;48.592;8.858;2022-09-11T11:02:16;21.30;98.50
23124;DHT22;11731;48.592;8.858;2022-09-11T11:04:46;20.60;99.20
23124;DHT22;11731;48.592;8.858;2022-09-11T11:07:25;20.60;98.20
23124;DHT22;11731;48.592;8.858;2022-09-11T11:10:02;20.90;97.70
23124;DHT22;11731;48.592;8.858;2022-09-11T11:12:46;20.90;96.90
23124;DHT22;11731;48.592;8.858;2022-09-11T11:15:25;21.10;96.50
23124;DHT22;11731;48.592;8.858;2022-09-11T11:18:09;21.50;96.60
23124;DHT22;11731;48.592;8.858;2022-09-11T11:20:45;21.10;97.30
23124;DHT22;11731;48.592;8.858;2022-09-11T11:23:36;21.40;97.30
23124;DHT22;11731;48.592;8.858;2022-09-11T11:26:21;22.00;97.20
23124;DHT22;11731;48.592;8.858;2022-09-11T11:29:07;22.50;96.50
23124;DHT22;11731;48.592;8.858;2022-09-11T11:31:51;22.70;96.50
23124;DHT22;11731;48.592;8.858;2022-09-11T11:34:30;22.40;95.80
23124;DHT22;11731;48.592;8.858;2022-09-11T11:37:05;22.10;96.00
23124;DHT22;11731;48.592;8.858;2022-09-11T11:39:43;22.10;96.00
23124;DHT22;11731;48.592;8.858;2022-09-11T11:42:14;22.10;95.90
23124;DHT22;11731;48.592;8.858;2022-09-11T11:44:46;22.40;95.70
23124;DHT22;11731;48.592;8.858;2022-09-11T11:47:17;22.80;95.30
23124;DHT22;11731;48.592;8.858;2022-09-11T11:49:55;23.20;94.80
23124;DHT22;11731;48.592;8.858;2022-09-11T11:52:33;23.10;94.50
23124;DHT22;11731;48.592;8.858;2022-09-11T11:55:11;23.10;95.50
23124;DHT22;11731;48.592;8.858;2022-09-11T11:57:45;23.20;94.40
23124;DHT22;11731;48.592;8.858;2022-09-11T12:00:15;23.20;95.90
23124;DHT22;11731;48.592;8.858;2022-09-11T12:02:46;23.20;95.70
23124;DHT22;11731;48.592;8.858;2022-09-11T12:05:17;23.00;95.60
23124;DHT22;11731;48.592;8.858;2022-09-11T12:07:50;23.30;95.00
23124;DHT22;11731;48.592;8.858;2022-09-11T12:10:20;23.40;94.40
23124;DHT22;11731;48.592;8.858;2022-09-11T12:12:51;23.60;94.40
23124;DHT22;11731;48.592;8.858;2022-09-11T12:15:21;23.70;93.80
23124;DHT22;11731;48.592;8.858;2022-09-11T12:17:58;23.60;94.00
23124;DHT22;11731;48.592;8.858;2022-09-11T12:20:31;23.60;94.10
23124;DHT22;11731;48.592;8.858;2022-09-11T12:23:00;23.20;94.10
23124;DHT22;11731;48.592;8.858;2022-09-11T12:26:02;23.40;94.20
23124;DHT22;11731;48.592;8.858;2022-09-11T12:28:30;23.70;93.70
23124;DHT22;11731;48.592;8.858;2022-09-11T12:31:00;23.60;93.30
23124;DHT22;11731;48.592;8.858;2022-09-11T12:36:49;23.70;92.60
23124;DHT22;11731;48.592;8.858;2022-09-11T12:39:25;24.10;92.30
23124;DHT22;11731;48.592;8.858;2022-09-11T12:44:59;24.60;91.40
23124;DHT22;11731;48.592;8.858;2022-09-11T12:47:32;24.60;91.50
23124;DHT22;11731;48.592;8.858;2022-09-11T12:50:14;24.40;91.30
23124;DHT22;11731;48.592;8.858;2022-09-11T12:52:47;24.40;92.00
23124;DHT22;11731;48.592;8.858;2022-09-11T12:55:27;24.70;91.90
23124;DHT22;11731;48.592;8.858;2022-09-11T12:57:55;24.00;93.10
23124;DHT22;11731;48.592;8.858;2022-09-11T13:00:33;23.90;94.20
23124;DHT22;11731;48.592;8.858;2022-09-11T13:03:01;24.30;93.60
23124;DHT22;11731;48.592;8.858;2022-09-11T13:05:31;24.60;93.00
23124;DHT22;11731;48.592;8.858;2022-09-11T13:08:02;24.70;94.00
23124;DHT22;11731;48.592;8.858;2022-09-11T13:10:32;24.50;94.10
23124;DHT22;11731;48.592;8.858;2022-09-11T13:13:00;24.40;93.70
23124;DHT22;11731;48.592;8.858;2022-09-11T13:15:38;24.00;93.20
23124;DHT22;11731;48.592;8.858;2022-09-11T13:18:28;23.50;94.20
23124;DHT22;11731;48.592;8.858;2022-09-11T13:21:01;23.90;94.10
23124;DHT22;11731;48.592;8.858;2022-09-11T13:23:37;24.30;93.00
23124;DHT22;11731;48.592;8.858;2022-09-11T13:26:06;24.50;92.60
23124;DHT22;11731;48.592;8.858;2022-09-11T13:28:42;24.80;92.70
23124;DHT22;11731;48.592;8.858;2022-09-11T13:31:15;24.80;92.70
23124;DHT22;11731;48.592;8.858;2022-09-11T13:33:46;24.90;92.30
23124;DHT22;11731;48.592;8.858;2022-09-11T13:36:15;24.50;92.60
23124;DHT22;11731;48.592;8.858;2022-09-11T13:38:47;24.50;92.40
23124;DHT22;11731;48.592;8.858;2022-09-11T13:41:19;24.50;92.70
23124;DHT22;11731;48.592;8.858;2022-09-11T13:43:50;24.50;93.00
23124;DHT22;11731;48.592;8.858;2022-09-11T13:46:21;24.30;93.40
23124;DHT22;11731;48.592;8.858;2022-09-11T13:48:50;24.40;93.20
23124;DHT22;11731;48.592;8.858;2022-09-11T13:51:20;24.20;93.30
23124;DHT22;11731;48.592;8.858;2022-09-11T13:53:54;24.40;93.40
23124;DHT22;11731;48.592;8.858;2022-09-11T13:56:40;24.60;93.00
23124;DHT22;11731;48.592;8.858;2022-09-11T13:59:34;24.80;92.90
23124;DHT22;11731;48.592;8.858;2022-09-11T14:02:06;24.50;93.20
23124;DHT22;11731;48.592;8.858;2022-09-11T14:04:42;24.50;93.90
23124;DHT22;11731;48.592;8.858;2022-09-11T14:07:18;24.70;93.10
23124;DHT22;11731;48.592;8.858;2022-09-11T14:09:47;25.10;92.20
23124;DHT22;11731;48.592;8.858;2022-09-11T14:12:15;25.30;92.10
23124;DHT22;11731;48.592;8.858;2022-09-11T14:14:49;25.40;91.30
23124;DHT22;11731;48.592;8.858;2022-09-11T14:17:18;25.40;91.70
23124;DHT22;11731;48.592;8.858;2022-09-11T14:19:45;25.60;91.70
23124;DHT22;11731;48.592;8.858;2022-09-11T14:22:13;25.50;91.50
23124;DHT22;11731;48.592;8.858;2022-09-11T14:24:50;25.40;91.90
23124;DHT22;11731;48.592;8.858;2022-09-11T14:27:35;25.60;91.80
23124;DHT22;11731;48.592;8.858;2022-09-11T14:30:24;25.40;91.80
23124;DHT22;11731;48.592;8.858;2022-09-11T14:33:21;25.30;92.30
23124;DHT22;11731;48.592;8.858;2022-09-11T14:35:49;25.00;92.10
23124;DHT22;11731;48.592;8.858;2022-09-11T14:38:20;24.60;91.70
23124;DHT22;11731;48.592;8.858;2022-09-11T14:40:52;24.50;92.10
23124;DHT22;11731;48.592;8.858;2022-09-11T14:43:24;24.50;91.80
23124;DHT22;11731;48.592;8.858;2022-09-11T14:45:51;24.50;92.40
23124;DHT22;11731;48.592;8.858;2022-09-11T14:48:20;24.30;93.10
23124;DHT22;11731;48.592;8.858;2022-09-11T14:50:47;24.40;92.90
23124;DHT22;11731;48.592;8.858;2022-09-11T14:53:17;24.30;92.80
23124;DHT22;11731;48.592;8.858;2022-09-11T14:55:44;24.30;93.10
23124;DHT22;11731;48.592;8.858;2022-09-11T14:58:11;24.20;92.40
23124;DHT22;11731;48.592;8.858;2022-09-11T15:00:38;24.10;92.40
23124;DHT22;11731;48.592;8.858;2022-09-11T15:03:05;23.90;92.70
23124;DHT22;11731;48.592;8.858;2022-09-11T15:05:34;23.90;93.20
23124;DHT22;11731;48.592;8.858;2022-09-11T15:08:01;24.30;92.80
23124;DHT22;11731;48.592;8.858;2022-09-11T15:10:29;24.50;92.30
23124;DHT22;11731;48.592;8.858;2022-09-11T15:12:57;24.50;92.90
23124;DHT22;11731;48.592;8.858;2022-09-11T15:15:24;24.50;92.90
23124;DHT22;11731;48.592;8.858;2022-09-11T15:17:52;24.50;92.60
23124;DHT22;11731;48.592;8.858;2022-09-11T15:20:19;24.70;92.90
23124;DHT22;11731;48.592;8.858;2022-09-11T15:22:47;24.50;92.60
23124;DHT22;11731;48.592;8.858;2022-09-11T15:25:14;24.40;92.70
23124;DHT22;11731;48.592;8.858;2022-09-11T15:27:41;24.50;92.80
23124;DHT22;11731;48.592;8.858;2022-09-11T15:30:09;24.50;92.50
23124;DHT22;11731;48.592;8.858;2022-09-11T15:32:37;24.30;92.80
23124;DHT22;11731;48.592;8.858;2022-09-11T15:35:04;24.40;93.10
23124;DHT22;11731;48.592;8.858;2022-09-11T15:37:32;24.70;92.10
23124;DHT22;11731;48.592;8.858;2022-09-11T15:40:00;24.80;91.90
23124;DHT22;11731;48.592;8.858;2022-09-11T15:42:28;24.90;92.20
23124;DHT22;11731;48.592;8.858;2022-09-11T15:44:55;24.80;92.40
23124;DHT22;11731;48.592;8.858;2022-09-11T15:47:22;24.80;92.20
23124;DHT22;11731;48.592;8.858;2022-09-11T15:49:49;24.90;92.50
23124;DHT22;11731;48.592;8.858;2022-09-11T15:52:16;24.90;92.10
23124;DHT22;11731;48.592;8.858;2022-09-11T15:54:44;24.90;92.10
23124;DHT22;11731;48.592;8.858;2022-09-11T15:57:13;24.40;93.70
23124;DHT22;11731;48.592;8.858;2022-09-11T15:59:40;24.10;94.00
23124;DHT22;11731;48.592;8.858;2022-09-11T16:02:08;23.90;94.30
23124;DHT22;11731;48.592;8.858;2022-09-11T16:04:35;23.50;94.70
23124;DHT22;11731;48.592;8.858;2022-09-11T16:07:02;23.30;95.00